createdAt,value
2018-06-02T00:01:32.243Z,19.96
2018-06-02T00:03:59.905Z,19.89
2018-06-02T00:06:27.501Z,19.83
2018-06-02T00:08:55.927Z,19.81
2018-06-02T00:11:23.635Z,19.78
2018-06-02T00:13:51.213Z,19.81
2018-06-02T00:16:18.936Z,19.79
2018-06-02T00:18:46.517Z,19.71
2018-06-02T00:21:14.095Z,19.63
2018-06-02T00:23:42.532Z,19.61
2018-06-02T00:26:10.109Z,19.55
2018-06-02T00:28:37.692Z,19.49
2018-06-02T00:31:05.424Z,19.44
2018-06-02T00:33:33.016Z,19.40
2018-06-02T00:36:00.661Z,19.37
2018-06-02T00:38:28.389Z,19.33
2018-06-02T00:40:55.963Z,19.28
2018-06-02T00:43:23.634Z,19.24
2018-06-02T00:45:51.275Z,19.24
2018-06-02T00:48:18.851Z,19.27
2018-06-02T00:50:46.437Z,19.25
2018-06-02T00:53:14.792Z,19.26
2018-06-02T00:55:42.452Z,19.28
2018-06-02T00:58:10.104Z,19.28
2018-06-02T01:00:37.758Z,19.28
2018-06-02T01:03:05.372Z,19.30
2018-06-02T01:05:32.964Z,19.28
2018-06-02T01:08:00.760Z,19.27
2018-06-02T01:10:28.372Z,19.24
2018-06-02T01:12:56.001Z,19.19
2018-06-02T01:15:23.639Z,19.16
2018-06-02T01:17:51.218Z,19.15
2018-06-02T01:20:18.874Z,19.12
2018-06-02T01:22:46.644Z,19.07
2018-06-02T01:25:14.232Z,19.03
2018-06-02T01:27:41.829Z,18.99
2018-06-02T01:30:09.445Z,18.94
2018-06-02T01:32:37.044Z,18.93
2018-06-02T01:35:04.640Z,18.87
2018-06-02T01:37:32.287Z,18.82
2018-06-02T01:39:59.951Z,18.78
2018-06-02T01:42:27.550Z,18.77
2018-06-02T01:44:55.721Z,18.78
2018-06-02T01:47:23.396Z,18.78
2018-06-02T01:49:51.039Z,18.79
2018-06-02T01:52:18.773Z,18.81
2018-06-02T01:54:46.361Z,18.82
2018-06-02T01:57:14.019Z,18.80
2018-06-02T01:59:41.655Z,18.73
2018-06-02T02:02:09.228Z,18.71
2018-06-02T02:04:36.809Z,18.68
2018-06-02T02:07:04.599Z,18.59
2018-06-02T02:09:32.179Z,18.49
2018-06-02T02:11:59.767Z,18.35
2018-06-02T02:14:27.393Z,18.21
2018-06-02T02:16:54.977Z,18.07
2018-06-02T02:19:22.627Z,17.99
2018-06-02T02:21:50.264Z,17.95
2018-06-02T02:24:17.848Z,17.95
2018-06-02T02:26:45.483Z,17.97
2018-06-02T02:29:13.212Z,18.04
2018-06-02T02:31:40.799Z,17.98
2018-06-02T02:34:08.363Z,17.94
2018-06-02T02:36:36.055Z,17.91
2018-06-02T02:39:03.736Z,17.88
2018-06-02T02:41:31.328Z,17.85
2018-06-02T02:43:59.045Z,17.82
2018-06-02T02:46:26.856Z,17.78
2018-06-02T02:48:54.443Z,17.76
2018-06-02T02:51:22.084Z,17.74
2018-06-02T02:53:49.720Z,17.75
2018-06-02T02:56:17.307Z,17.76
2018-06-02T02:58:45.036Z,17.82
2018-06-02T03:01:12.626Z,17.87
2018-06-02T03:03:40.230Z,17.96
2018-06-02T03:06:07.945Z,18.01
2018-06-02T03:08:35.519Z,18.09
2018-06-02T03:11:03.091Z,18.16
2018-06-02T03:13:30.729Z,18.18
2018-06-02T03:15:58.315Z,18.16
2018-06-02T03:18:25.930Z,18.17
2018-06-02T03:20:53.643Z,18.18
2018-06-02T03:23:21.217Z,18.20
2018-06-02T03:25:48.860Z,18.28
2018-06-02T03:28:16.475Z,18.38
2018-06-02T03:30:44.113Z,18.45
2018-06-02T03:33:11.692Z,18.51
2018-06-02T03:35:39.345Z,18.60
2018-06-02T03:38:06.919Z,18.70
2018-06-02T03:40:34.508Z,18.80
2018-06-02T03:43:02.221Z,18.88
2018-06-02T03:45:29.848Z,19.00
2018-06-02T03:47:57.447Z,19.12
2018-06-02T03:50:25.088Z,19.17
2018-06-02T03:52:52.668Z,19.22
2018-06-02T03:55:20.247Z,19.26
2018-06-02T03:57:47.979Z,19.32
2018-06-02T04:00:15.590Z,19.38
2018-06-02T04:02:43.245Z,19.46
2018-06-02T04:05:11.003Z,19.54
2018-06-02T04:07:38.660Z,19.55
2018-06-02T04:10:06.318Z,19.57
2018-06-02T04:12:34.046Z,19.66
2018-06-02T04:15:01.631Z,19.77
2018-06-02T04:17:29.993Z,19.88
2018-06-02T04:19:57.700Z,19.94
2018-06-02T04:22:25.340Z,20.05
2018-06-02T04:24:52.945Z,20.16
2018-06-02T04:27:20.666Z,20.30
2018-06-02T04:29:48.316Z,20.45
2018-06-02T04:32:15.969Z,20.53
2018-06-02T04:34:43.657Z,20.54
2018-06-02T04:37:11.220Z,20.49
2018-06-02T04:39:38.806Z,20.48
2018-06-02T04:42:06.452Z,20.57
2018-06-02T04:44:34.104Z,20.71
2018-06-02T04:47:01.733Z,20.79
2018-06-02T04:49:29.453Z,21.01
2018-06-02T04:51:57.093Z,21.27
2018-06-02T04:54:24.736Z,21.48
2018-06-02T04:56:52.458Z,21.66
2018-06-02T04:59:20.028Z,21.83
2018-06-02T05:01:47.627Z,22.09
2018-06-02T05:04:15.259Z,22.33
2018-06-02T05:06:42.919Z,22.53
2018-06-02T05:09:10.574Z,22.88
2018-06-02T05:11:38.350Z,23.20
2018-06-02T05:14:06.011Z,23.47
2018-06-02T05:16:33.595Z,23.68
2018-06-02T05:19:01.214Z,23.85
2018-06-02T05:21:28.795Z,24.03
2018-06-02T05:23:56.365Z,24.16
2018-06-02T05:26:24.069Z,24.34
2018-06-02T05:28:51.664Z,24.54
2018-06-02T05:31:19.314Z,24.78
2018-06-02T05:33:47.025Z,24.89
2018-06-02T05:36:15.232Z,24.99
2018-06-02T05:38:42.875Z,24.68
2018-06-02T05:41:10.584Z,24.73
2018-06-02T05:43:38.204Z,25.00
2018-06-02T05:46:05.864Z,25.30
2018-06-02T05:48:33.544Z,25.46
2018-06-02T05:51:01.165Z,25.34
2018-06-02T05:53:28.765Z,25.07
2018-06-02T05:55:56.511Z,24.98
2018-06-02T05:58:24.149Z,25.02
2018-06-02T06:00:51.741Z,25.20
2018-06-02T06:03:20.286Z,25.40
2018-06-02T06:05:47.928Z,25.57
2018-06-02T06:08:15.503Z,25.85
2018-06-02T06:10:43.277Z,26.07
2018-06-02T06:13:10.884Z,26.20
2018-06-02T06:15:38.541Z,26.47
2018-06-02T06:18:06.349Z,26.66
2018-06-02T06:20:34.036Z,26.67
2018-06-02T06:23:01.628Z,26.35
2018-06-02T06:25:29.276Z,26.43
2018-06-02T06:27:56.953Z,26.69
2018-06-02T06:30:24.533Z,26.44
2018-06-02T06:32:52.221Z,26.33
2018-06-02T06:35:19.860Z,26.28
2018-06-02T06:37:47.527Z,26.15
2018-06-02T06:40:15.236Z,25.56
2018-06-02T06:42:42.826Z,25.53
2018-06-02T06:45:10.443Z,25.90
2018-06-02T06:47:38.115Z,26.22
2018-06-02T06:50:05.715Z,25.91
2018-06-02T06:52:33.380Z,26.06
2018-06-02T06:55:01.105Z,26.45
2018-06-02T06:57:28.695Z,26.80
2018-06-02T06:59:56.294Z,27.01
2018-06-02T07:02:23.994Z,27.22
2018-06-02T07:04:51.625Z,27.22
2018-06-02T07:07:19.233Z,27.44
2018-06-02T07:09:46.987Z,27.76
2018-06-02T07:12:15.543Z,27.88
2018-06-02T07:14:43.159Z,27.93
2018-06-02T07:17:10.862Z,28.16
2018-06-02T07:19:38.508Z,28.36
2018-06-02T07:22:06.111Z,28.22
2018-06-02T07:24:33.739Z,28.13
2018-06-02T07:27:01.319Z,27.61
2018-06-02T07:29:28.960Z,27.39
2018-06-02T07:31:56.587Z,27.55
2018-06-02T07:34:24.228Z,27.76
2018-06-02T07:36:52.372Z,27.55
2018-06-02T07:39:21.283Z,27.57
2018-06-02T07:41:48.965Z,27.63
2018-06-02T07:44:16.594Z,27.96
2018-06-02T07:46:44.339Z,27.93
2018-06-02T07:49:11.947Z,27.96
2018-06-02T07:51:39.553Z,28.14
2018-06-02T07:54:07.273Z,28.29
2018-06-02T07:56:34.856Z,28.28
2018-06-02T07:59:02.437Z,27.81
2018-06-02T08:01:30.168Z,27.85
2018-06-02T08:03:57.774Z,27.61
2018-06-02T08:06:25.441Z,27.74
2018-06-02T08:08:53.103Z,27.85
2018-06-02T08:11:20.687Z,27.92
2018-06-02T08:13:48.265Z,27.58
2018-06-02T08:16:16.013Z,27.70
2018-06-02T08:18:43.593Z,27.85
2018-06-02T08:21:11.264Z,28.04
2018-06-02T08:23:39.000Z,28.04
2018-06-02T08:26:06.660Z,28.29
2018-06-02T08:28:34.305Z,28.58
2018-06-02T08:31:01.953Z,28.74
2018-06-02T08:33:29.621Z,29.01
2018-06-02T08:35:57.232Z,29.34
2018-06-02T08:38:24.937Z,29.29
2018-06-02T08:40:52.524Z,29.15
2018-06-02T08:43:20.169Z,29.25
2018-06-02T08:45:47.867Z,29.24
2018-06-02T08:48:16.281Z,29.08
2018-06-02T08:50:43.867Z,29.08
2018-06-02T08:53:11.580Z,29.19
2018-06-02T08:55:39.263Z,29.36
2018-06-02T08:58:06.908Z,29.31
2018-06-02T09:00:34.533Z,29.49
2018-06-02T09:03:02.115Z,29.69
2018-06-02T09:05:29.787Z,29.93
2018-06-02T09:07:57.556Z,29.89
2018-06-02T09:10:25.220Z,29.91
2018-06-02T09:12:52.874Z,29.97
2018-06-02T09:15:20.565Z,30.02
2018-06-02T09:17:48.156Z,29.87
2018-06-02T09:20:15.824Z,29.48
2018-06-02T09:22:43.782Z,29.61
2018-06-02T09:25:11.395Z,29.76
2018-06-02T09:27:38.992Z,29.71
2018-06-02T09:30:06.659Z,29.63
2018-06-02T09:32:34.260Z,29.51
2018-06-02T09:35:01.953Z,29.46
2018-06-02T09:37:29.698Z,29.58
2018-06-02T09:39:57.276Z,29.71
2018-06-02T09:42:24.860Z,29.88
2018-06-02T09:44:52.606Z,29.90
2018-06-02T09:47:20.266Z,29.89
2018-06-02T09:49:47.913Z,30.17
2018-06-02T09:52:15.614Z,30.29
2018-06-02T09:54:43.249Z,30.27
2018-06-02T09:57:10.900Z,30.28
2018-06-02T09:59:38.685Z,30.26
2018-06-02T10:02:06.358Z,30.31
2018-06-02T10:04:33.998Z,30.33
2018-06-02T10:07:01.891Z,30.55
2018-06-02T10:09:29.587Z,30.69
2018-06-02T10:11:57.167Z,30.37
2018-06-02T10:14:24.879Z,30.03
2018-06-02T10:16:52.530Z,30.10
2018-06-02T10:19:20.169Z,30.26
2018-06-02T10:21:47.808Z,30.50
2018-06-02T10:24:15.377Z,30.73
2018-06-02T10:26:42.971Z,30.83
2018-06-02T10:29:10.593Z,30.96
2018-06-02T10:31:39.137Z,31.10
2018-06-02T10:34:06.808Z,31.05
2018-06-02T10:36:34.451Z,31.22
2018-06-02T10:39:02.077Z,31.39
2018-06-02T10:41:29.671Z,31.78
2018-06-02T10:43:57.309Z,31.67
2018-06-02T10:46:24.968Z,30.60
2018-06-02T10:48:52.621Z,30.40
2018-06-02T10:51:20.397Z,30.60
2018-06-02T10:53:48.029Z,31.00
2018-06-02T10:56:15.710Z,31.19
2018-06-02T10:58:43.428Z,31.33
2018-06-02T11:01:11.019Z,31.37
2018-06-02T11:03:39.334Z,31.67
2018-06-02T11:06:07.004Z,31.84
2018-06-02T11:08:34.653Z,31.86
2018-06-02T11:11:02.303Z,31.87
2018-06-02T11:13:29.993Z,32.10
2018-06-02T11:15:57.658Z,31.67
2018-06-02T11:18:25.237Z,30.95
2018-06-02T11:20:52.952Z,30.56
2018-06-02T11:23:20.565Z,30.37
2018-06-02T11:25:48.215Z,30.52
2018-06-02T11:28:16.009Z,30.78
2018-06-02T11:30:43.606Z,30.89
2018-06-02T11:33:11.258Z,31.22
2018-06-02T11:35:38.985Z,31.46
2018-06-02T11:38:06.664Z,31.51
2018-06-02T11:40:34.238Z,31.55
2018-06-02T11:43:01.943Z,31.24
2018-06-02T11:45:29.675Z,31.17
2018-06-02T11:47:57.287Z,31.27
2018-06-02T11:50:24.996Z,31.47
2018-06-02T11:52:52.732Z,31.72
2018-06-02T11:55:20.468Z,31.79
2018-06-02T11:57:48.104Z,31.96
2018-06-02T12:00:15.801Z,31.78
2018-06-02T12:02:43.451Z,31.88
2018-06-02T12:05:11.108Z,31.99
2018-06-02T12:07:38.693Z,32.14
2018-06-02T12:10:06.389Z,32.05
2018-06-02T12:12:34.076Z,32.12
2018-06-02T12:15:01.721Z,31.98
2018-06-02T12:17:29.322Z,31.84
2018-06-02T12:19:57.042Z,31.78
2018-06-02T12:22:24.619Z,31.69
2018-06-02T12:24:52.265Z,31.61
2018-06-02T12:27:19.969Z,31.51
2018-06-02T12:29:47.559Z,31.07
2018-06-02T12:32:15.139Z,30.59
2018-06-02T12:34:42.896Z,30.75
2018-06-02T12:37:10.583Z,30.95
2018-06-02T12:39:38.165Z,31.13
2018-06-02T12:42:05.927Z,31.13
2018-06-02T12:44:33.581Z,31.11
2018-06-02T12:47:01.187Z,31.17
2018-06-02T12:49:28.844Z,31.31
2018-06-02T12:51:56.441Z,31.29
2018-06-02T12:54:24.116Z,31.19
2018-06-02T12:56:51.757Z,31.24
2018-06-02T12:59:20.369Z,31.05
2018-06-02T13:01:47.980Z,31.08
2018-06-02T13:04:15.617Z,30.99
2018-06-02T13:06:43.308Z,31.02
2018-06-02T13:09:10.888Z,30.99
2018-06-02T13:11:38.606Z,30.84
2018-06-02T13:14:06.250Z,30.52
2018-06-02T13:16:33.812Z,30.02
2018-06-02T13:19:01.509Z,29.92
2018-06-02T13:21:29.092Z,29.88
2018-06-02T13:23:56.716Z,29.87
2018-06-02T13:26:24.505Z,29.93
2018-06-02T13:28:52.140Z,29.91
2018-06-02T13:31:19.699Z,30.00
2018-06-02T13:33:47.435Z,30.11
2018-06-02T13:36:15.006Z,30.16
2018-06-02T13:38:42.576Z,30.12
2018-06-02T13:41:10.317Z,30.12
2018-06-02T13:43:37.888Z,30.10
2018-06-02T13:46:05.479Z,30.03
2018-06-02T13:48:33.112Z,29.93
2018-06-02T13:51:00.745Z,29.62
2018-06-02T13:53:28.334Z,29.51
2018-06-02T13:55:56.112Z,29.40
2018-06-02T13:58:23.764Z,29.35
2018-06-02T14:00:53.376Z,29.27
2018-06-02T14:03:21.035Z,29.19
2018-06-02T14:05:48.617Z,29.15
2018-06-02T14:08:16.186Z,29.11
2018-06-02T14:10:43.920Z,29.05
2018-06-02T14:13:11.490Z,28.87
2018-06-02T14:15:39.059Z,28.72
2018-06-02T14:18:07.513Z,28.80
2018-06-02T14:20:35.075Z,28.92
2018-06-02T14:23:02.697Z,29.03
2018-06-02T14:25:30.438Z,29.07
2018-06-02T14:27:58.084Z,29.21
2018-06-02T14:30:25.661Z,29.30
2018-06-02T14:32:53.431Z,29.31
2018-06-02T14:35:21.020Z,29.33
2018-06-02T14:37:48.596Z,29.26
2018-06-02T14:40:16.224Z,29.24
2018-06-02T14:42:43.854Z,29.27
2018-06-02T14:45:12.372Z,29.25
2018-06-02T14:47:40.096Z,29.23
2018-06-02T14:50:07.731Z,29.25
2018-06-02T14:52:36.255Z,29.15
2018-06-02T14:55:04.094Z,29.04
2018-06-02T14:57:31.666Z,28.99
2018-06-02T14:59:59.312Z,28.93
2018-06-02T15:02:27.023Z,28.88
2018-06-02T15:04:54.692Z,28.80
2018-06-02T15:07:22.748Z,28.76
2018-06-02T15:09:50.475Z,28.69
2018-06-02T15:12:18.108Z,28.58
2018-06-02T15:14:45.687Z,28.60
2018-06-02T15:17:13.303Z,28.46
2018-06-02T15:19:40.879Z,28.53
2018-06-02T15:22:08.536Z,28.50
2018-06-02T15:24:36.261Z,28.36
2018-06-02T15:27:03.827Z,28.37
2018-06-02T15:29:31.396Z,28.33
2018-06-02T15:31:59.120Z,28.35
2018-06-02T15:34:26.690Z,28.31
2018-06-02T15:36:54.261Z,28.24
2018-06-02T15:39:22.032Z,28.23
2018-06-02T15:41:49.630Z,28.12
2018-06-02T15:44:17.268Z,28.11
2018-06-02T15:46:45.443Z,28.12
2018-06-02T15:49:13.010Z,28.09
2018-06-02T15:51:40.583Z,28.05
2018-06-02T15:54:08.915Z,28.03
2018-06-02T15:56:37.281Z,27.98
2018-06-02T15:59:04.921Z,27.95
2018-06-02T16:01:32.695Z,27.95
2018-06-02T16:04:00.302Z,27.89
2018-06-02T16:06:27.889Z,27.80
2018-06-02T16:08:55.603Z,27.72
2018-06-02T16:11:23.241Z,27.72
2018-06-02T16:13:50.831Z,27.71
2018-06-02T16:16:18.563Z,27.68
2018-06-02T16:18:46.212Z,27.61
2018-06-02T16:21:13.808Z,27.53
2018-06-02T16:23:41.512Z,27.45
2018-06-02T16:26:09.101Z,27.43
2018-06-02T16:28:36.733Z,27.38
2018-06-02T16:31:04.391Z,27.32
2018-06-02T16:33:32.860Z,27.29
2018-06-02T16:36:00.428Z,27.31
2018-06-02T16:38:28.220Z,27.29
2018-06-02T16:40:55.812Z,27.27
2018-06-02T16:43:23.415Z,27.23
2018-06-02T16:45:51.071Z,27.11
2018-06-02T16:48:18.710Z,27.04
2018-06-02T16:50:46.413Z,26.93
2018-06-02T16:53:14.088Z,26.84
2018-06-02T16:55:41.741Z,26.77
2018-06-02T16:58:09.425Z,26.73
2018-06-02T17:00:37.121Z,26.66
2018-06-02T17:03:04.768Z,26.57
2018-06-02T17:05:32.354Z,26.52
2018-06-02T17:08:00.145Z,26.49
2018-06-02T17:10:27.795Z,26.42
2018-06-02T17:12:55.449Z,26.36
2018-06-02T17:15:23.174Z,26.28
2018-06-02T17:17:50.829Z,26.21
2018-06-02T17:20:18.391Z,26.10
2018-06-02T17:22:46.032Z,26.06
2018-06-02T17:25:13.665Z,26.02
2018-06-02T17:27:41.290Z,25.96
2018-06-02T17:30:08.932Z,25.83
2018-06-02T17:32:36.503Z,25.77
2018-06-02T17:35:04.161Z,25.78
2018-06-02T17:37:31.857Z,25.73
2018-06-02T17:39:59.501Z,25.67
2018-06-02T17:42:27.070Z,25.62
2018-06-02T17:44:54.760Z,25.66
2018-06-02T17:47:22.336Z,25.72
2018-06-02T17:49:49.908Z,25.68
2018-06-02T17:52:17.525Z,25.57
2018-06-02T17:54:45.186Z,25.45
2018-06-02T17:57:12.779Z,25.38
2018-06-02T17:59:40.496Z,25.23
2018-06-02T18:02:08.128Z,25.14
2018-06-02T18:04:35.809Z,25.05
2018-06-02T18:07:03.565Z,25.02
2018-06-02T18:09:31.289Z,25.01
2018-06-02T18:11:58.924Z,24.98
2018-06-02T18:14:26.536Z,24.95
2018-06-02T18:16:54.123Z,24.90
2018-06-02T18:19:21.712Z,24.78
2018-06-02T18:21:49.328Z,24.71
2018-06-02T18:24:16.891Z,24.65
2018-06-02T18:26:44.520Z,24.58
2018-06-02T18:29:12.156Z,24.53
2018-06-02T18:31:39.798Z,24.46
2018-06-02T18:34:07.428Z,24.45
2018-06-02T18:36:35.151Z,24.43
2018-06-02T18:39:02.838Z,24.37
2018-06-02T18:41:31.311Z,24.32
2018-06-02T18:43:58.934Z,24.27
2018-06-02T18:46:26.499Z,24.21
2018-06-02T18:48:54.076Z,24.12
2018-06-02T18:51:21.764Z,24.00
2018-06-02T18:53:49.344Z,23.95
2018-06-02T18:56:16.992Z,23.90
2018-06-02T18:58:44.691Z,23.83
2018-06-02T19:01:12.268Z,23.64
2018-06-02T19:03:40.696Z,23.56
2018-06-02T19:06:08.457Z,23.48
2018-06-02T19:08:36.088Z,23.43
2018-06-02T19:11:03.692Z,23.44
2018-06-02T19:13:31.461Z,23.38
2018-06-02T19:15:59.049Z,23.31
2018-06-02T19:18:27.267Z,23.25
2018-06-02T19:20:55.066Z,23.22
2018-06-02T19:23:22.700Z,23.17
2018-06-02T19:25:50.333Z,23.15
2018-06-02T19:28:18.038Z,23.13
2018-06-02T19:30:45.616Z,23.12
2018-06-02T19:33:13.204Z,23.06
2018-06-02T19:35:40.929Z,23.04
2018-06-02T19:38:08.507Z,22.94
2018-06-02T19:40:36.094Z,22.92
2018-06-02T19:43:03.799Z,22.86
2018-06-02T19:45:31.708Z,22.80
2018-06-02T19:47:59.279Z,22.79
2018-06-02T19:50:27.600Z,22.77
2018-06-02T19:52:55.176Z,22.76
2018-06-02T19:55:22.939Z,22.74
2018-06-02T19:57:50.622Z,22.67
2018-06-02T20:00:18.222Z,22.55
2018-06-02T20:02:45.784Z,22.50
2018-06-02T20:05:13.508Z,22.48
2018-06-02T20:07:41.105Z,22.45
2018-06-02T20:10:08.789Z,22.44
2018-06-02T20:12:37.370Z,22.27
2018-06-02T20:15:04.959Z,22.19
2018-06-02T20:17:32.527Z,22.04
2018-06-02T20:20:00.244Z,21.90
2018-06-02T20:22:27.831Z,21.86
2018-06-02T20:24:55.417Z,21.85
2018-06-02T20:27:23.130Z,21.84
2018-06-02T20:29:51.504Z,21.81
2018-06-02T20:32:19.092Z,21.79
2018-06-02T20:34:46.710Z,21.74
2018-06-02T20:37:14.295Z,21.69
2018-06-02T20:39:41.938Z,21.64
2018-06-02T20:42:09.649Z,21.57
2018-06-02T20:44:37.225Z,21.48
2018-06-02T20:47:04.944Z,21.41
2018-06-02T20:49:32.720Z,21.33
2018-06-02T20:52:00.320Z,21.24
2018-06-02T20:54:27.915Z,21.15
2018-06-02T20:57:30.739Z,20.84
2018-06-02T20:59:59.717Z,20.82
2018-06-02T21:02:28.720Z,20.81
2018-06-02T21:04:57.718Z,20.79
2018-06-02T21:07:26.736Z,20.70
2018-06-02T21:09:56.701Z,20.69
2018-06-02T21:12:25.920Z,20.65
2018-06-02T21:14:55.232Z,20.62
2018-06-02T21:17:24.199Z,20.60
2018-06-02T21:19:53.853Z,20.57
2018-06-02T21:22:22.751Z,20.54
2018-06-02T21:24:51.737Z,20.53
2018-06-02T21:27:20.840Z,20.52
2018-06-02T21:29:49.754Z,20.48
2018-06-02T21:32:18.740Z,20.48
2018-06-02T21:34:47.680Z,20.46
2018-06-02T21:37:17.132Z,20.45
2018-06-02T21:39:46.496Z,20.44
2018-06-02T21:42:15.532Z,20.45
2018-06-02T21:44:45.932Z,20.45
2018-06-02T21:47:14.839Z,20.43
2018-06-02T21:49:43.960Z,20.40
2018-06-02T21:52:12.863Z,20.35
2018-06-02T21:54:46.181Z,20.32
2018-06-02T21:57:15.078Z,20.31
2018-06-02T21:59:44.051Z,20.27
2018-06-02T22:02:13.068Z,20.28
2018-06-02T22:04:42.252Z,20.27
2018-06-02T22:07:11.192Z,20.28
2018-06-02T22:09:40.383Z,20.27
2018-06-02T22:12:09.381Z,20.30
2018-06-02T22:14:38.501Z,20.26
2018-06-02T22:17:07.717Z,20.24
2018-06-02T22:19:37.398Z,20.19
2018-06-02T22:22:06.344Z,20.17
2018-06-02T22:24:35.481Z,20.14
2018-06-02T22:27:04.464Z,20.01
2018-06-02T22:29:33.375Z,19.96
2018-06-02T22:32:02.475Z,19.87
2018-06-02T22:34:31.416Z,19.81
2018-06-02T22:37:00.330Z,19.72
2018-06-02T22:39:29.289Z,19.68
2018-06-02T22:41:58.224Z,19.61
2018-06-02T22:44:27.147Z,19.57
2018-06-02T22:46:56.310Z,19.54
2018-06-02T22:49:25.306Z,19.53
2018-06-02T22:51:59.880Z,19.51
2018-06-02T22:54:28.999Z,19.48
2018-06-02T22:56:58.244Z,19.42
2018-06-02T22:59:28.049Z,19.42
2018-06-02T23:01:57.443Z,19.39
2018-06-02T23:04:26.468Z,19.34
2018-06-02T23:06:55.765Z,19.30
2018-06-02T23:09:24.756Z,19.31
2018-06-02T23:11:53.709Z,19.32
2018-06-02T23:14:23.390Z,19.34
2018-06-02T23:16:52.890Z,19.32
2018-06-02T23:19:21.887Z,19.30
2018-06-02T23:21:50.979Z,19.30
2018-06-02T23:24:19.916Z,19.31
2018-06-02T23:26:48.814Z,19.32
2018-06-02T23:29:17.912Z,19.32
2018-06-02T23:31:46.891Z,19.31
2018-06-02T23:34:15.845Z,19.31
2018-06-02T23:36:44.931Z,19.30
2018-06-02T23:39:13.859Z,19.29
2018-06-02T23:41:43.436Z,19.28
2018-06-02T23:44:12.427Z,19.28
2018-06-02T23:46:41.353Z,19.27
2018-06-02T23:49:10.379Z,19.22
2018-06-02T23:51:39.553Z,19.19
2018-06-02T23:54:09.096Z,19.15
2018-06-02T23:56:38.087Z,19.11
2018-06-02T23:59:07.237Z,19.08
